Impacts TAF Board
For situational awareness. Not to be used for flight planning purposes.
IDs:

KDHN - Dothan Rgnl, AL, US

Issued at 1740 UTC 07 Dec 2021
Updated at 1820 UTC 07 Dec 2021
Potential Impact None Slight Moderate High
Time1800Z 07/19Z 07/20Z 07/21Z 07/22Z 07/23Z 08/00Z 08/01Z 08/02Z 08/03Z 08/04Z 08/05Z 08/06Z 08/07Z>>
Type OBS PRVL PRVL PRVL PRVL PRVL PRVL PRVL PRVL PRVL PRVL PRVL PRVL PRVL
VIS 6 2 2 5 5 5 >6 >6 >6 2 2 2 0.5 0.5
CIG 3 2 2 5 5 5 15 15 15 4 4 4 2 2
Cover OVC OVC OVC OVC OVC OVC BKN BKN BKN OVC OVC OVC OVC OVC
FltCat LIFR LIFR LIFR IFR IFR IFR MVFR MVFR MVFR LIFR LIFR LIFR LIFR LIFR
WX -RA BR BR VCSH BR VCSH -SHRA -SHRA -SHRA -SHRA -SHRA -SHRA -SHRA -SHRA -SHRA -SHRA FG -SHRA FG
WDir 20 70 70 VRB VRB VRB VRB VRB VRB 90 90 90 140 140
WSpd 5 6 6 4 4 4 0 0 0 3 3 3 5 5
WGst -- -- -- -- -- -- -- -- -- -- -- -- -- --
WSHgt -- -- -- -- -- -- -- -- -- -- -- -- -- --
WSDir -- -- -- -- -- -- -- -- -- -- -- -- -- --
WSSpd -- -- -- -- -- -- -- -- -- -- -- -- -- --
Raw TAF
KDHN 071740Z 0718/0818 07006KT 2SM BR VCSH OVC002
  FM072100 VRB04KT 5SM -SHRA OVC005
  FM080000 00000KT P6SM -SHRA SCT007 BKN015
  FM080300 09003KT 2SM -SHRA OVC004
  FM080600 14005KT 1/2SM -SHRA FG OVC002
  FM081100 29006KT 3SM BR VCSH BKN007


Raw METAR
KDHN 071800Z 02005KT 6SM -RA BR OVC003 13/13 A3014 RMK AO2 P0000 T01330128
KDHN 071753Z 03004KT 2SM -RA BR OVC003 13/13 A3014 RMK AO2 RAB07 SLP204 P0000 60000 T01330128 10150 20122 58014
KDHN 071653Z 07005KT 2SM BR OVC002 13/13 A3016 RMK AO2 RAB21E35 SLP212 P0000 T01330128
KDHN 071553Z 04005KT 1/2SM FG OVC002 13/12 A3018 RMK AO2 SLP219 T01280122

METAR Board
Radar Display
Forecast Discussion
For situational awareness. Not to be used for flight planning purposes.